Weather observations for the past three days for
Blairsville Airport
Metric (Imperial)
Date Time (edt) Wind (kph) Vis. (km) Weather Sky Cond. Temperature (ºC) Relative Humidity Wind Chill (°C) Heat Index (°C) Pressure Precipitation (cm)
Air Dwpt 6 hour altimeter (cm) sea level (mb) 1 hr 3 hr 6 hr
Max. Min.
02 20:55 NW 7 16.09 Fair CLR 11.7 -0.3 44% 76.17 0.0
02 20:35 NW 11 16.09 Fair CLR 12.3 -0.9 40% 76.17 0.0
02 20:15 NW 11 16.09 Fair CLR 12.8 -1 39% 76.15 0.0
02 19:55 NW 9 16.09 Partly Cloudy SCT070 13.1 -0.8 17.9 13 39% 76.12 0.0
02 19:35 NW 7 16.09 Fair CLR 13.7 -1.5 35% 76.12 0.0
02 19:15 NW 9 16.09 Fair CLR 14.4 -1.2 34% 76.1 0.0
02 18:55 NW 13 16.09 Partly Cloudy SCT080 14.7 -1.3 34% 76.1 0.0
02 18:35 NW 13 16.09 Partly Cloudy SCT080 14.8 -0.8 35% 76.1 0.0
02 18:15 NW 15 G 28 16.09 Fair CLR 14.2 -1.7 34% 76.1 0.0
02 17:55 NW 9 G 31 16.09 Fair CLR 15.8 -1 32% 76.07 0.0
02 17:35 NW 13 G 28 16.09 Fair CLR 15.9 -1.8 30% 76.05 0.0
02 17:15 NW 11 16.09 Fair CLR 16.4 -1.9 29% 76.02 0.0
02 16:55 NW 11 G 30 16.09 Fair CLR 16.3 -1.6 30% 76.02 0.0
02 16:35 NW 13 G 37 16.09 Fair CLR 16.6 -1.2 30% 76.02 0.0
02 16:15 NW 9 11.27 Fair CLR 17.1 -1.6 28% 76 0.0
02 15:55 N 11 11.27 Fair with Haze CLR 17.7 -1.2 28% 76 0.0
02 15:35 NW 11 8.05 Fair with Haze CLR 16.8 -1.8 28% 76 0.0
02 15:15 N 11 11.27 Fair with Haze CLR 16.9 1.4 35% 76 0.0
02 14:55 N 11 8.05 Partly Cloudy with Haze SCT060 16.8 1.8 37% 76 0.0
02 14:35 N 17 11.27 Overcast OVC060 17.3 2.6 38% 76 0.0
02 14:15 NW 9 16.09 Overcast OVC050 16.5 3.5 42% 76 0.0
02 13:55 NW 7 16.09 Mostly Cloudy BKN050 BKN060 15.5 4.1 17.9 9.8 47% 76.02 0.0
02 13:35 NW 7 16.09 Mostly Cloudy SCT048 BKN060 17.3 6.9 51% 76.02 0.0
02 13:15 W 11 16.09 Overcast BKN046 OVC060 15.2 5.4 52% 76.05 0.0
02 12:55 N 9 16.09 Overcast OVC050 15.1 5.5 53% 76.07 0.0
02 12:35 N 6 16.09 Overcast SCT040 OVC060 14.9 5.5 54% 76.07 0.0
02 12:15 W 6 16.09 Overcast SCT040 OVC060 14.8 5.5 54% 76.07 0.0
02 11:55 NE 6 16.09 Overcast OVC070 15.2 7 58% 76.07 0.0
02 11:35 W 6 16.09 Overcast OVC060 14.2 6.5 60% 76.1 0.0
02 11:15 NW 6 16.09 Overcast OVC060 12.8 5.6 62% 76.1 0.0
02 10:55 N 7 16.09 Overcast OVC070 13.1 6.1 63% 76.1 0.0
02 10:35 NW 7 16.09 Mostly Cloudy BKN070 12.4 5.7 64% 76.07 0.0
02 10:15 N 6 16.09 Fair CLR 12 5.6 65% 76.07 0.0
02 09:55 Calm 16.09 Fair CLR 12 6.3 68% 76.07 0.0
02 09:35 Calm 16.09 Fair CLR 11.1 5.7 70% 76.07 0.0
02 09:15 S 6 16.09 Fair CLR 11.1 5.5 69% 76.02 0.0
02 08:55 SW 6 16.09 Partly Cloudy SCT120 10.5 5.5 71% 76.07 0.0
02 08:35 Calm 16.09 Partly Cloudy SCT120 10.2 5.5 73% 76.05 0.0
02 08:15 Calm 16.09 Mostly Cloudy BKN110 9.9 6 77% 76.05 0.0
02 07:55 Calm 16.09 Mostly Cloudy BKN120 9.8 6.5 12.4 9.1 80% 76.05 0.0
02 07:35 Calm 16.09 Mostly Cloudy BKN120 9.6 6.2 80% 76.05 0.0
02 07:15 Calm 16.09 Mostly Cloudy BKN120 9.4 6.1 80% 76.02 0.0
02 06:55 Calm 16.09 Overcast OVC120 9.3 6.4 82% 76.02 0.0
02 06:35 Calm 16.09 Overcast OVC120 9.5 6.2 80% 76 0.0
02 06:15 Calm 16.09 Overcast OVC120 9.7 6.6 81% 75.97 0.0
02 05:55 Calm 16.09 Mostly Cloudy BKN120 9.8 6.6 81% 76 0.0
02 05:35 Calm 16.09 Partly Cloudy SCT120 9.8 7.1 83% 76 0.0
02 05:15 Calm 16.09 Mostly Cloudy BKN120 9.9 6.5 80% 76 0.0
02 04:55 Calm 16.09 Fair CLR 10.2 6.8 80% 76 0.0
02 04:35 Calm 16.09 Partly Cloudy SCT120 10.4 6.9 79% 76 0.0
02 04:15 Calm 16.09 Partly Cloudy SCT120 10.5 6.5 77% 76.02 0.0
02 03:55 Calm 16.09 Mostly Cloudy BKN110 10.7 6.6 76% 76.02 0.0
02 03:15 Calm 16.09 Overcast OVC120 11 7.5 79% 76.05 0.0
02 02:55 Calm 16.09 Overcast OVC120 11.2 6.8 75% 76.02 0.0
02 02:35 SW 6 16.09 Overcast OVC120 11.6 6.9 73% 76.05 0.0
02 02:15 SW 6 16.09 Overcast OVC120 11.9 6.6 70% 76.07 0.0
02 01:55 NW 7 16.09 Overcast OVC120 12.4 6.3 15.3 11 67% 76.05 0.0
02 01:35 W 6 16.09 Mostly Cloudy BKN120 12.1 6.8 70% 76.07 0.0
02 01:15 Calm 16.09 Partly Cloudy SCT120 11.1 8.3 83% 76.07 0.0
02 00:55 Calm 16.09 Fair CLR 11.3 7.9 80% 76.07 0.0
02 00:35 Calm 16.09 Fair CLR 11.2 8.3 83% 76.1 0.0
02 00:15 Calm 16.09 Fair CLR 11.2 8.2 82% 76.12 0.0
01 23:55 Calm 16.09 Fair CLR 11.5 7.6 77% 76.1 0.0
01 23:35 Calm 16.09 Fair CLR 11.7 7.4 75% 76.1 0.0
01 23:15 Calm 16.09 Fair CLR 11.8 7.3 74% 76.12 0.0
01 22:55 Calm 16.09 Fair CLR 12.1 6.7 70% 76.12 0.0
01 22:35 Calm 16.09 Fair CLR 12.2 6.6 69% 76.12 0.0
01 22:15 Calm 16.09 Fair CLR 13.1 5.2 59% 76.12 0.0
01 21:55 Calm 16.09 Fair CLR 12.6 5.6 63% 76.12 0.0
01 21:35 Calm 16.09 Fair CLR 12.5 6.8 68% 76.07 0.0
01 21:15 Calm 16.09 Fair CLR 13 5.9 62% 76.07 0.0
01 20:55 S 6 16.09 Fair CLR 13.7 5.5 58% 76.05 0.0
01 20:35 SW 6 16.09 Fair CLR 13.9 5.6 58% 76.02 0.0
01 20:15 Calm 16.09 Fair CLR 14.6 6.1 57% 76.02 0.0
01 19:55 NW 6 16.09 Fair CLR 15.3 5.9 19.4 14.9 54% 76.02 0.0
01 19:35 Calm 16.09 Fair CLR 15.3 7.6 60% 76 0.0
01 19:15 NW 6 16.09 Fair CLR 16.2 6.4 52% 76 0.0
01 18:55 NW 6 16.09 Fair CLR 16.6 6.4 51% 75.97 0.0
01 18:35 W 7 16.09 Fair CLR 17.6 6.9 50% 75.97 0.0
01 18:15 NW 6 16.09 Fair CLR 17.6 6.5 48% 75.97 0.0
01 17:55 N 6 16.09 Fair CLR 17.7 7.1 50% 75.97 0.0
01 17:35 W 6 16.09 Fair CLR 17.8 6.4 47% 76 0.0
01 17:15 W 9 16.09 Fair CLR 18 6.5 47% 76.02 0.0
01 16:35 Calm 16.09 Partly Cloudy SCT120 18.1 6.8 48% 76.02 0.0
01 16:15 N 9 16.09 Fair CLR 18.4 5.7 44% 76.05 0.0
01 15:55 SW 7 16.09 Fair CLR 18.4 5.7 44% 76.05 0.0
01 15:35 W 6 16.09 Fair CLR 18 3 37% 76.07 0.0
01 15:15 SW 9 16.09 Fair CLR 18.9 5.1 40% 76.07 0.0
01 14:55 NW 7 16.09 Fair CLR 18.6 5.9 44% 76.1 0.0
01 14:35 NW 7 16.09 Partly Cloudy SCT050 18.2 4.9 42% 76.1 0.0
01 14:15 Calm 16.09 Partly Cloudy SCT050 18.1 5.7 44% 76.1 0.0
01 13:55 NE 6 16.09 Fair CLR 18.2 5.2 18.5 8.7 43% 76.12 0.0
01 13:35 E 7 16.09 Fair CLR 18 4.7 42% 76.1 0.0
01 13:15 NE 9 16.09 Fair CLR 18.1 5.2 43% 76.12 0.0
01 12:55 S 6 16.09 Fair CLR 17.3 3.7 41% 76.15 0.0
01 12:35 E 9 16.09 Fair CLR 17.7 3.8 40% 76.15 0.0
01 12:15 E 9 4.02 Fair with Haze CLR 17.7 4.3 41% 76.15 0.0
01 11:55 SW 9 11.27 Fair CLR 17.5 4.5 42% 76.17 0.0
01 11:35 NE 9 16.09 Fair CLR 17.1 3.6 41% 76.15 0.0
01 11:15 NE 7 16.09 Fair CLR 17.5 4.8 43% 76.17 0.0
01 10:55 E 11 16.09 Fair CLR 17.2 4.4 43% 76.17 0.0
01 10:35 SE 11 16.09 Fair CLR 16.3 4.1 44% 76.17 0.0
01 10:15 E 6 16.09 Fair CLR 15.8 4.2 46% 76.17 0.0
01 09:55 Calm 16.09 Fair CLR 14.6 6.2 57% 76.15 0.0
01 09:35 E 6 16.09 Fair CLR 13.8 6.4 61% 76.15 0.0
01 09:15 NE 6 16.09 Fair CLR 12 7.9 76% 76.15 0.0
01 08:55 NE 6 16.09 Fair CLR 10.4 7.4 82% 76.12 0.0
01 08:35 Calm 16.09 Fair CLR 10.1 7.3 83% 76.15 0.0
01 08:15 Calm 16.09 Fair CLR 9.2 7.8 91% 76.12 0.0
01 07:55 E 6 16.09 Fair CLR 8.9 7.8 9.7 7.4 93% 76.12 0.0
01 07:35 Calm 16.09 Fair CLR 8 7.6 97% 76.1 0.0
01 07:15 Calm 11.27 Fair CLR 7.6 7.3 98% 76.1 0.0
01 06:55 Calm 5.63 Fog/Mist CLR 7.8 7.6 99% 76.1 0.0
01 06:35 Calm 16.09 Fair CLR 7.9 7.7 99% 76.1 0.0
01 06:15 Calm 16.09 Partly Cloudy SCT120 7.7 7.5 99% 76.1 0.0
01 05:55 Calm 11.27 Fair CLR 8.1 7.6 97% 76.07 0.0
01 05:35 Calm 16.09 Fair CLR 8.5 8 97% 76.1 0.0
01 05:15 Calm 16.09 Fair CLR 8.7 7.9 95% 76.1 0.0
01 04:55 Calm 16.09 Fair CLR 8.6 7.9 95% 76.1 0.0
01 04:35 Calm 16.09 Fair CLR 8.7 8.1 96% 76.1 0.0
01 04:15 Calm 16.09 Partly Cloudy SCT120 9 7.8 92% 76.1 0.0
01 03:55 S 6 16.09 Mostly Cloudy BKN120 9.1 7.9 92% 76.07 0.0
01 03:35 Calm 16.09 Mostly Cloudy BKN120 9.3 8 92% 76.07 0.0
01 03:15 Calm 16.09 Partly Cloudy SCT120 9.3 8 92% 76.07 0.0
01 02:50 Calm 16.09 Mostly Cloudy SCT100 BKN120 9.5 7.9 90% 76.07 0.0
01 02:35 Calm 16.09 Overcast BKN100 OVC120 9.6 7.8 89% 76.07 0.0
01 02:15 Calm 16.09 Overcast OVC120 9.5 7.8 89% 76.07 0.0
01 01:55 Calm 16.09 Mostly Cloudy BKN120 9.4 7.5 15.3 8.9 88% 76.07 0.0
01 01:35 Calm 16.09 Partly Cloudy SCT120 9.3 7.5 89% 76.07 0.0
01 01:15 Calm 16.09 Partly Cloudy SCT120 9.6 7.1 85% 76.1 0.0
01 00:55 Calm 16.09 Partly Cloudy SCT120 9.3 7.6 89% 76.1 0.0
01 00:35 Calm 16.09 Fair CLR 9.4 7.6 89% 76.12 0.0
01 00:15 Calm 16.09 Fair CLR 9.2 7 86% 76.12 0.0
30 23:55 Calm 16.09 Fair CLR 9.1 6.8 86% 76.12 0.0
30 23:35 Calm 16.09 Fair CLR 9.3 6.8 85% 76.12 0.0
30 23:15 S 7 16.09 Fair CLR 9.4 6.9 85% 9 76.12 0.0
30 22:55 S 7 16.09 Fair CLR 10.4 6.3 76% 76.12 0.0
30 22:35 W 6 16.09 Fair CLR 10.8 6.4 74% 76.12 0.0
30 21:55 Calm 16.09 Fair CLR 13.1 4.1 55% 76.07 0.0
30 21:35 NW 6 16.09 Fair CLR 12.3 5.2 62% 76.07 0.0
30 21:15 SE 7 16.09 Fair CLR 12.7 5.4 61% 76.07 0.0
30 20:55 W 6 16.09 Fair CLR 14.1 4.1 51% 76.02 0.0
30 20:35 NW 7 16.09 Fair CLR 14.4 4.3 51% 76.02 0.0
30 20:15 NW 7 16.09 Fair CLR 14.7 4.3 50% 75.97 0.0
30 19:55 NW 13 16.09 Fair CLR 15.3 4.4 19.8 15.2 48% 75.97 0.0
30 19:35 NW 6 16.09 Fair CLR 15.7 4.8 49% 75.97 0.0
30 19:15 NW 13 16.09 Fair CLR 15.9 5.2 49% 75.97 0.0
30 18:55 NW 7 16.09 Fair CLR 16.3 5.3 48% 75.97 0.0
30 18:35 NW 6 16.09 Fair CLR 16.5 5.2 47% 75.97 0.0
30 18:15 NW 13 16.09 Fair CLR 16.6 4.5 45% 75.95 0.0
30 17:55 NW 11 16.09 Fair CLR 17.1 4.8 44% 75.95 0.0
30 17:35 NW 9 16.09 Fair CLR 17.3 4.7 44% 75.97 0.0
30 17:15 NW 13 16.09 Fair CLR 17.7 4.3 41% 75.95 0.0
30 16:55 NW 9 16.09 Fair CLR 17.7 5.4 45% 75.95 0.0
30 16:35 NW 11 G 30 16.09 Fair CLR 17.7 5.2 44% 75.95 0.0
30 16:15 N 15 16.09 Fair CLR 18.3 5.1 42% 75.97 0.0
30 15:55 NW 15 16.09 Fair CLR 19 5.2 40% 76 0.0
30 15:35 NW 9 16.09 Fair CLR 18.9 6 43% 75.97 0.0
30 15:15 NW 11 16.09 Fair CLR 19.3 6.2 43% 75.97 0.0
30 14:55 NW 9 16.09 Fair CLR 19.4 6.4 43% 75.97 0.0
30 14:35 N 13 16.09 Fair CLR 18.8 6.4 45% 75.97 0.0
30 14:15 NW 15 16.09 Fair CLR 19.1 7.7 48% 75.97 0.0
30 13:55 NW 9 16.09 Fair CLR 18.7 7.6 19.1 15.4 49% 75.97 0.0
30 13:35 NW 9 16.09 Fair CLR 18.6 7.8 50% 76 0.0
30 13:15 NW 11 16.09 Fair CLR 17.8 8.4 54% 76 0.0
30 12:55 W 13 16.09 Fair CLR 18 8.7 55% 76.02 0.0
30 12:35 N 6 16.09 Fair CLR 18 9.1 56% 76.02 0.0
30 12:15 W 6 16.09 Fair CLR 17.5 9.5 60% 76.02 0.0
30 11:55 NW 7 16.09 Fair CLR 17.3 9.2 59% 76 0.0
30 11:35 NW 7 16.09 Partly Cloudy SCT027 17 10.2 64% 76 0.0
30 11:15 W 11 16.09 Partly Cloudy SCT022 16.6 10.3 67% 76 0.0
30 10:55 N 9 16.09 Partly Cloudy SCT018 16 11.1 73% 76 0.0
30 10:35 N 6 16.09 NULL NULL 16.1 11.9 76% 76 0.0
30 10:10 NW 9 16.09 Overcast SCT012 OVC019 15.2 11.4 78% 75.97 0.0
30 09:55 NW 6 16.09 Overcast OVC012 14.3 12.2 87% 75.97 0.0
30 09:35 W 11 16.09 Overcast OVC010 13.6 11.6 88% 75.95 0.0
30 09:15 W 6 16.09 Overcast OVC008 13.8 12.4 91% 75.95 0.0
30 08:55 W 6 16.09 Overcast OVC008 13.1 12.3 95% 75.95 0.0
30 08:35 NW 9 16.09 Overcast OVC011 12.7 11.9 95% 75.92 0.0
30 08:15 NW 7 16.09 Overcast OVC013 12.9 12.5 97% 75.92 0.0
30 07:55 Calm 11.27 Fog/Mist OVC013 13 13 15.9 12.6 100% 75.87 0.0 0.38
30 07:35 Calm 11.27 Overcast SCT002 OVC013 13 0 0% 75.87 0.0
30 07:15 NW 7 6.44 Mostly Cloudy with Haze SCT002 SCT013 BKN085 13 0 0% 75.9 0.0
30 06:55 Calm 11.27 Mostly Cloudy with Haze SCT013 BKN085 BKN120 13 0 0% 75.92 0.0 0.03
30 06:35 Calm 11.27 Light Rain Fog/Mist BKN085 OVC110 13 13 100% 75.92 0.0 0.03
30 06:15 N 6 11.27 Light Rain OVC095 12.7 12.7 100% 75.95 0.0 0.03
30 05:55 Calm 11.27 Light Rain OVC085 12.8 12.6 99% 75.95 0.0 0.2
30 05:35 Calm 8.05 Thunderstorm Rain in Vicinity Fog/Mist SCT070 OVC085 12.9 12.5 97% 75.97 0.0 0.18
30 05:15 Calm 8.05 Thunderstorm Rain in Vicinity Fog/Mist SCT070 OVC085 13 12.4 96% 76.02 0.0 0.1
30 04:55 SW 6 11.27 Thunderstorm Rain in Vicinity Fog/Mist OVC085 13.3 12.1 93% 76 0.0 0.13 0.13
30 04:35 W 7 11.27 Light Rain SCT012 BKN055 OVC080 13.8 12.2 90% 75.97 0.0 0.03
30 04:15 W 9 16.09 Overcast SCT012 BKN060 OVC070 14.8 12.8 88% 75.95 0.0
30 03:55 N 6 16.09 Mostly Cloudy SCT019 BKN060 BKN065 14.7 12.9 89% 75.87 0.0
30 03:35 N 6 16.09 Partly Cloudy SCT019 SCT050 14.8 12.7 87% 75.87 0.0
30 03:15 Calm 16.09 Mostly Cloudy SCT012 SCT018 BKN046 15.1 12.6 85% 75.87 0.0
30 02:55 NW 6 16.09 Overcast BKN012 BKN018 OVC034 15.5 13.4 87% 75.9 0.0
30 02:35 SW 6 16.09 Mostly Cloudy SCT012 BKN034 BKN043 15.6 14 90% 75.9 0.0
30 02:15 Calm 16.09 Partly Cloudy SCT012 SCT043 15.5 14.2 92% 75.9 0.0
30 01:55 Calm 16.09 Mostly Cloudy BKN012 BKN043 15.9 14.5 21.4 15.9 91% 75.92 0.0
30 01:35 Calm 16.09 Overcast OVC012 16.5 14.5 88% 75.95 0.0
30 01:15 W 7 16.09 Partly Cloudy SCT014 16.8 14.5 86% 75.97 0.0
30 00:55 NW 7 16.09 Partly Cloudy SCT033 SCT048 SCT060 16.7 14.6 88% 76 0.0
30 00:35 W 6 16.09 Mostly Cloudy SCT035 BKN050 17.1 14.5 85% 76.02 0.0
30 00:15 W 7 16.09 Overcast BKN035 OVC050 17.4 14.7 84% 76.02 0.0
29 23:55 W 6 16.09 Overcast OVC035 17.7 14.8 83% 76.02 0.0
29 23:35 Calm 16.09 Overcast OVC035 17.7 15.2 85% 76.05 0.0
29 23:15 Calm 16.09 Mostly Cloudy BKN035 17.8 15.4 86% 76.02 0.0
29 22:55 Calm 16.09 Mostly Cloudy BKN035 17.9 15.6 87% 76.02 0.0
29 22:35 Calm 16.09 Partly Cloudy SCT037 18.5 15.5 83% 76.05 0.0
29 22:15 Calm 16.09 Partly Cloudy SCT039 SCT046 SCT055 18.9 15.4 80% 76.02 0.0
29 21:55 Calm 16.09 Partly Cloudy SCT039 SCT046 SCT055 19.2 15.5 79% 76 0.0
29 21:35 Calm 16.09 Partly Cloudy SCT036 SCT044 19.6 16 80% 76 0.0
29 21:15 Calm 16.09 Partly Cloudy SCT035 19.4 16 81% 75.97 0.0
Date Time (edt) Wind (kph) Vis. (km) Weather Sky Cond. Air Dwpt Max. Min. Relative Humidity Wind Chill (°C) Heat Index (°C) altimeter (cm) sea level (mb) 1 hr 3 hr 6 hr
6 hour
Temperature (ºC) Pressure Precipitation (cm)